Dodgeville, Michigan
Current Conditions -  °F | °C
As of 12:53 PM on Thursday 29 Jan 2015 (Local Time) from KCMX Reporting Station
Overcast Overcast  
Wind Chill:   Ceiling: 1100
Heat Index: 23°   Visibility: 7mi
Dew Point: 18°   Wind: 24mph
Humidity: 81%   Direction: 330°NNW
Pressure: 29.96"   Gusts: 32mph
Location:  47.09°N, 88.58°W
Report Text: KCMX 291753Z AUTO 33021G28KT 7SM OVC011 M05/M08 A2996 RMK AO2 PK WND 34032/1722 CIG 010V014 SLP160 60000 T10501078 11011 21050 51032
Loading
Personal Weather Stations






























Interactive Weather Map New forecast layout! Learn more

10-Day Weather Forecast

Advertisements
Track Severe Weather on mobile